sensor_id;sensor_type;location;lat;lon;timestamp;temperature;humidity
52899;DHT22;38763;53.096;6.062;2022-10-16T00:01:21;12.00;99.90
52899;DHT22;38763;53.096;6.062;2022-10-16T00:03:48;12.00;99.90
52899;DHT22;38763;53.096;6.062;2022-10-16T00:06:15;11.90;99.90
52899;DHT22;38763;53.096;6.062;2022-10-16T00:08:41;12.00;99.90
52899;DHT22;38763;53.096;6.062;2022-10-16T00:11:19;11.90;99.90
52899;DHT22;38763;53.096;6.062;2022-10-16T00:13:47;12.00;99.90
52899;DHT22;38763;53.096;6.062;2022-10-16T00:16:14;12.00;99.90
52899;DHT22;38763;53.096;6.062;2022-10-16T00:18:41;12.00;99.90
52899;DHT22;38763;53.096;6.062;2022-10-16T00:21:19;11.90;99.90
52899;DHT22;38763;53.096;6.062;2022-10-16T00:23:45;11.90;99.90
52899;DHT22;38763;53.096;6.062;2022-10-16T00:26:13;11.90;99.90
52899;DHT22;38763;53.096;6.062;2022-10-16T00:28:40;12.00;99.90
52899;DHT22;38763;53.096;6.062;2022-10-16T00:31:08;12.00;99.90
52899;DHT22;38763;53.096;6.062;2022-10-16T00:33:34;12.00;99.90
52899;DHT22;38763;53.096;6.062;2022-10-16T00:36:01;11.90;99.90
52899;DHT22;38763;53.096;6.062;2022-10-16T00:38:27;11.90;99.90
52899;DHT22;38763;53.096;6.062;2022-10-16T00:40:53;12.00;99.90
52899;DHT22;38763;53.096;6.062;2022-10-16T00:46:08;12.00;99.90
52899;DHT22;38763;53.096;6.062;2022-10-16T00:48:36;12.10;99.90
52899;DHT22;38763;53.096;6.062;2022-10-16T00:51:02;12.10;99.90
52899;DHT22;38763;53.096;6.062;2022-10-16T00:53:28;12.10;99.90
52899;DHT22;38763;53.096;6.062;2022-10-16T00:55:54;12.00;99.90
52899;DHT22;38763;53.096;6.062;2022-10-16T00:58:20;12.10;99.90
52899;DHT22;38763;53.096;6.062;2022-10-16T01:00:46;12.00;99.90
52899;DHT22;38763;53.096;6.062;2022-10-16T01:03:27;12.10;99.90
52899;DHT22;38763;53.096;6.062;2022-10-16T01:17:09;12.10;99.90
52899;DHT22;38763;53.096;6.062;2022-10-16T01:19:44;12.10;99.90
52899;DHT22;38763;53.096;6.062;2022-10-16T01:22:12;12.10;99.90
52899;DHT22;38763;53.096;6.062;2022-10-16T01:24:45;12.20;99.90
52899;DHT22;38763;53.096;6.062;2022-10-16T01:27:13;12.10;99.90
52899;DHT22;38763;53.096;6.062;2022-10-16T01:29:56;12.20;99.90
52899;DHT22;38763;53.096;6.062;2022-10-16T01:34:59;12.20;99.90
52899;DHT22;38763;53.096;6.062;2022-10-16T01:37:44;12.20;99.90
52899;DHT22;38763;53.096;6.062;2022-10-16T01:40:14;12.20;99.90
52899;DHT22;38763;53.096;6.062;2022-10-16T01:42:45;12.20;99.90
52899;DHT22;38763;53.096;6.062;2022-10-16T01:45:14;12.20;99.90
52899;DHT22;38763;53.096;6.062;2022-10-16T01:47:40;12.20;99.90
52899;DHT22;38763;53.096;6.062;2022-10-16T01:50:08;12.30;99.90
52899;DHT22;38763;53.096;6.062;2022-10-16T01:52:37;12.30;99.90
52899;DHT22;38763;53.096;6.062;2022-10-16T01:55:05;12.30;99.90
52899;DHT22;38763;53.096;6.062;2022-10-16T01:57:34;12.30;99.90
52899;DHT22;38763;53.096;6.062;2022-10-16T02:00:07;12.30;99.90
52899;DHT22;38763;53.096;6.062;2022-10-16T02:02:34;12.30;99.90
52899;DHT22;38763;53.096;6.062;2022-10-16T02:05:32;12.30;99.90
52899;DHT22;38763;53.096;6.062;2022-10-16T02:07:59;12.30;99.90
52899;DHT22;38763;53.096;6.062;2022-10-16T02:10:25;12.30;99.90
52899;DHT22;38763;53.096;6.062;2022-10-16T02:15:53;12.30;99.90
52899;DHT22;38763;53.096;6.062;2022-10-16T02:18:19;12.30;99.90
52899;DHT22;38763;53.096;6.062;2022-10-16T02:20:59;12.30;99.90
52899;DHT22;38763;53.096;6.062;2022-10-16T02:23:54;12.30;99.90
52899;DHT22;38763;53.096;6.062;2022-10-16T02:26:47;12.30;99.90
52899;DHT22;38763;53.096;6.062;2022-10-16T02:29:16;12.40;99.90
52899;DHT22;38763;53.096;6.062;2022-10-16T02:31:46;12.40;99.90
52899;DHT22;38763;53.096;6.062;2022-10-16T02:34:15;12.40;99.90
52899;DHT22;38763;53.096;6.062;2022-10-16T02:36:42;12.40;99.90
52899;DHT22;38763;53.096;6.062;2022-10-16T02:39:08;12.30;99.90
52899;DHT22;38763;53.096;6.062;2022-10-16T02:41:35;12.30;99.90
52899;DHT22;38763;53.096;6.062;2022-10-16T02:44:00;12.30;99.90
52899;DHT22;38763;53.096;6.062;2022-10-16T02:46:26;12.20;99.90
52899;DHT22;38763;53.096;6.062;2022-10-16T02:48:52;12.20;99.90
52899;DHT22;38763;53.096;6.062;2022-10-16T02:51:17;12.20;99.90
52899;DHT22;38763;53.096;6.062;2022-10-16T02:53:44;12.10;99.90
52899;DHT22;38763;53.096;6.062;2022-10-16T02:56:09;12.10;99.90
52899;DHT22;38763;53.096;6.062;2022-10-16T02:58:35;12.00;99.90
52899;DHT22;38763;53.096;6.062;2022-10-16T03:01:01;12.00;99.90
52899;DHT22;38763;53.096;6.062;2022-10-16T03:03:27;12.10;99.90
52899;DHT22;38763;53.096;6.062;2022-10-16T03:05:52;11.90;99.90
52899;DHT22;38763;53.096;6.062;2022-10-16T03:08:18;11.90;99.90
52899;DHT22;38763;53.096;6.062;2022-10-16T03:10:49;11.90;99.90
52899;DHT22;38763;53.096;6.062;2022-10-16T03:13:14;11.90;99.90
52899;DHT22;38763;53.096;6.062;2022-10-16T03:15:40;11.90;99.90
52899;DHT22;38763;53.096;6.062;2022-10-16T03:18:06;11.90;99.90
52899;DHT22;38763;53.096;6.062;2022-10-16T03:20:31;12.00;99.90
52899;DHT22;38763;53.096;6.062;2022-10-16T03:22:57;11.90;99.90
52899;DHT22;38763;53.096;6.062;2022-10-16T03:25:22;12.00;99.90
52899;DHT22;38763;53.096;6.062;2022-10-16T03:27:48;11.90;99.90
52899;DHT22;38763;53.096;6.062;2022-10-16T03:30:13;12.00;99.90
52899;DHT22;38763;53.096;6.062;2022-10-16T03:32:39;12.00;99.90
52899;DHT22;38763;53.096;6.062;2022-10-16T03:35:05;11.90;99.90
52899;DHT22;38763;53.096;6.062;2022-10-16T03:37:31;11.90;99.90
52899;DHT22;38763;53.096;6.062;2022-10-16T03:39:56;11.90;99.90
52899;DHT22;38763;53.096;6.062;2022-10-16T03:42:22;11.80;99.90
52899;DHT22;38763;53.096;6.062;2022-10-16T03:44:48;11.80;99.90
52899;DHT22;38763;53.096;6.062;2022-10-16T03:47:13;11.70;99.90
52899;DHT22;38763;53.096;6.062;2022-10-16T03:49:39;11.80;99.90
52899;DHT22;38763;53.096;6.062;2022-10-16T03:52:04;11.80;99.90
52899;DHT22;38763;53.096;6.062;2022-10-16T03:54:30;11.70;99.90
52899;DHT22;38763;53.096;6.062;2022-10-16T03:56:56;11.70;99.90
52899;DHT22;38763;53.096;6.062;2022-10-16T03:59:21;11.70;99.90
52899;DHT22;38763;53.096;6.062;2022-10-16T04:01:47;11.70;99.90
52899;DHT22;38763;53.096;6.062;2022-10-16T04:04:12;11.70;99.90
52899;DHT22;38763;53.096;6.062;2022-10-16T04:06:38;11.80;99.90
52899;DHT22;38763;53.096;6.062;2022-10-16T04:09:04;11.80;99.90
52899;DHT22;38763;53.096;6.062;2022-10-16T04:11:29;11.80;99.90
52899;DHT22;38763;53.096;6.062;2022-10-16T04:13:55;11.70;99.90
52899;DHT22;38763;53.096;6.062;2022-10-16T04:16:20;11.80;99.90
52899;DHT22;38763;53.096;6.062;2022-10-16T04:18:46;11.70;99.90
52899;DHT22;38763;53.096;6.062;2022-10-16T04:21:11;11.80;99.90
52899;DHT22;38763;53.096;6.062;2022-10-16T04:23:37;11.80;99.90
52899;DHT22;38763;53.096;6.062;2022-10-16T04:26:03;11.90;99.90
52899;DHT22;38763;53.096;6.062;2022-10-16T04:28:28;12.00;99.90
52899;DHT22;38763;53.096;6.062;2022-10-16T04:30:54;12.00;99.90
52899;DHT22;38763;53.096;6.062;2022-10-16T04:33:20;12.00;99.90
52899;DHT22;38763;53.096;6.062;2022-10-16T04:35:45;12.10;99.90
52899;DHT22;38763;53.096;6.062;2022-10-16T04:38:11;12.10;99.90
52899;DHT22;38763;53.096;6.062;2022-10-16T04:40:36;12.10;99.90
52899;DHT22;38763;53.096;6.062;2022-10-16T04:43:04;12.20;99.90
52899;DHT22;38763;53.096;6.062;2022-10-16T04:45:29;12.20;99.90
52899;DHT22;38763;53.096;6.062;2022-10-16T04:47:59;12.20;99.90
52899;DHT22;38763;53.096;6.062;2022-10-16T04:50:25;12.20;99.90
52899;DHT22;38763;53.096;6.062;2022-10-16T04:52:51;12.20;99.90
52899;DHT22;38763;53.096;6.062;2022-10-16T04:55:16;12.30;99.90
52899;DHT22;38763;53.096;6.062;2022-10-16T04:57:42;12.20;99.90
52899;DHT22;38763;53.096;6.062;2022-10-16T05:00:08;12.30;99.90
52899;DHT22;38763;53.096;6.062;2022-10-16T05:02:34;12.30;99.90
52899;DHT22;38763;53.096;6.062;2022-10-16T05:05:00;12.20;99.90
52899;DHT22;38763;53.096;6.062;2022-10-16T05:07:25;12.20;99.90
52899;DHT22;38763;53.096;6.062;2022-10-16T05:09:51;12.30;99.90
52899;DHT22;38763;53.096;6.062;2022-10-16T05:12:17;12.30;99.90
52899;DHT22;38763;53.096;6.062;2022-10-16T05:14:42;12.20;99.90
52899;DHT22;38763;53.096;6.062;2022-10-16T05:17:08;12.20;99.90
52899;DHT22;38763;53.096;6.062;2022-10-16T05:19:34;12.20;99.90
52899;DHT22;38763;53.096;6.062;2022-10-16T05:21:59;12.20;99.90
52899;DHT22;38763;53.096;6.062;2022-10-16T05:24:25;12.30;99.90
52899;DHT22;38763;53.096;6.062;2022-10-16T05:26:51;12.20;99.90
52899;DHT22;38763;53.096;6.062;2022-10-16T05:29:17;12.20;99.90
52899;DHT22;38763;53.096;6.062;2022-10-16T05:31:42;12.30;99.90
52899;DHT22;38763;53.096;6.062;2022-10-16T05:34:08;12.20;99.90
52899;DHT22;38763;53.096;6.062;2022-10-16T05:36:33;12.20;99.90
52899;DHT22;38763;53.096;6.062;2022-10-16T05:38:59;12.20;99.90
52899;DHT22;38763;53.096;6.062;2022-10-16T05:41:25;12.20;99.90
52899;DHT22;38763;53.096;6.062;2022-10-16T05:43:52;12.20;99.90
52899;DHT22;38763;53.096;6.062;2022-10-16T05:46:17;12.20;99.90
52899;DHT22;38763;53.096;6.062;2022-10-16T05:48:43;12.10;99.90
52899;DHT22;38763;53.096;6.062;2022-10-16T05:51:11;12.10;99.90
52899;DHT22;38763;53.096;6.062;2022-10-16T05:53:38;12.20;99.90
52899;DHT22;38763;53.096;6.062;2022-10-16T05:56:05;12.10;99.90
52899;DHT22;38763;53.096;6.062;2022-10-16T05:58:33;12.00;99.90
52899;DHT22;38763;53.096;6.062;2022-10-16T06:01:05;12.20;99.90
52899;DHT22;38763;53.096;6.062;2022-10-16T06:03:32;12.20;99.90
52899;DHT22;38763;53.096;6.062;2022-10-16T06:05:58;12.20;99.90
52899;DHT22;38763;53.096;6.062;2022-10-16T06:08:24;12.20;99.90
52899;DHT22;38763;53.096;6.062;2022-10-16T06:11:04;12.10;99.90
52899;DHT22;38763;53.096;6.062;2022-10-16T06:13:29;12.20;99.90
52899;DHT22;38763;53.096;6.062;2022-10-16T06:15:57;12.10;99.90
52899;DHT22;38763;53.096;6.062;2022-10-16T06:18:24;12.10;99.90
52899;DHT22;38763;53.096;6.062;2022-10-16T06:20:49;12.20;99.90
52899;DHT22;38763;53.096;6.062;2022-10-16T06:23:15;12.30;99.90
52899;DHT22;38763;53.096;6.062;2022-10-16T06:25:40;12.30;99.90
52899;DHT22;38763;53.096;6.062;2022-10-16T06:28:06;12.20;99.90
52899;DHT22;38763;53.096;6.062;2022-10-16T06:30:31;12.20;99.90
52899;DHT22;38763;53.096;6.062;2022-10-16T06:32:57;12.30;99.90
52899;DHT22;38763;53.096;6.062;2022-10-16T06:35:23;12.30;99.90
52899;DHT22;38763;53.096;6.062;2022-10-16T06:37:49;12.40;99.90
52899;DHT22;38763;53.096;6.062;2022-10-16T06:40:15;12.30;99.90
52899;DHT22;38763;53.096;6.062;2022-10-16T06:42:41;12.30;99.90
52899;DHT22;38763;53.096;6.062;2022-10-16T06:45:07;12.40;99.90
52899;DHT22;38763;53.096;6.062;2022-10-16T06:47:33;12.40;99.90
52899;DHT22;38763;53.096;6.062;2022-10-16T06:49:58;12.40;99.90
52899;DHT22;38763;53.096;6.062;2022-10-16T06:52:24;12.50;99.90
52899;DHT22;38763;53.096;6.062;2022-10-16T06:54:50;12.50;99.90
52899;DHT22;38763;53.096;6.062;2022-10-16T06:57:15;12.50;99.90
52899;DHT22;38763;53.096;6.062;2022-10-16T06:59:41;12.50;99.90
52899;DHT22;38763;53.096;6.062;2022-10-16T07:02:08;12.40;99.90
52899;DHT22;38763;53.096;6.062;2022-10-16T07:04:33;12.50;99.90
52899;DHT22;38763;53.096;6.062;2022-10-16T07:07:00;12.50;99.90
52899;DHT22;38763;53.096;6.062;2022-10-16T07:09:26;12.40;99.90
52899;DHT22;38763;53.096;6.062;2022-10-16T07:11:52;12.40;99.90
52899;DHT22;38763;53.096;6.062;2022-10-16T07:14:19;12.50;99.90
52899;DHT22;38763;53.096;6.062;2022-10-16T07:16:46;12.50;99.90
52899;DHT22;38763;53.096;6.062;2022-10-16T07:19:12;12.40;99.90
52899;DHT22;38763;53.096;6.062;2022-10-16T07:21:40;12.40;99.90
52899;DHT22;38763;53.096;6.062;2022-10-16T07:24:10;12.50;99.90
52899;DHT22;38763;53.096;6.062;2022-10-16T07:26:36;12.50;99.90
52899;DHT22;38763;53.096;6.062;2022-10-16T07:29:04;12.40;99.90
52899;DHT22;38763;53.096;6.062;2022-10-16T07:31:30;12.50;99.90
52899;DHT22;38763;53.096;6.062;2022-10-16T07:33:58;12.40;99.90
52899;DHT22;38763;53.096;6.062;2022-10-16T07:36:24;12.40;99.90
52899;DHT22;38763;53.096;6.062;2022-10-16T07:38:49;12.50;99.90
52899;DHT22;38763;53.096;6.062;2022-10-16T07:41:17;12.30;99.90
52899;DHT22;38763;53.096;6.062;2022-10-16T07:43:51;12.40;99.90
52899;DHT22;38763;53.096;6.062;2022-10-16T07:46:19;12.50;99.90
52899;DHT22;38763;53.096;6.062;2022-10-16T07:48:45;12.50;99.90
52899;DHT22;38763;53.096;6.062;2022-10-16T07:51:14;12.50;99.90
52899;DHT22;38763;53.096;6.062;2022-10-16T07:53:40;12.50;99.90
52899;DHT22;38763;53.096;6.062;2022-10-16T07:56:06;12.60;99.90
52899;DHT22;38763;53.096;6.062;2022-10-16T07:58:34;12.60;99.90
52899;DHT22;38763;53.096;6.062;2022-10-16T08:01:07;12.60;99.90
52899;DHT22;38763;53.096;6.062;2022-10-16T08:03:32;12.80;99.90
52899;DHT22;38763;53.096;6.062;2022-10-16T08:05:59;12.70;99.90
52899;DHT22;38763;53.096;6.062;2022-10-16T08:08:25;12.90;99.90
52899;DHT22;38763;53.096;6.062;2022-10-16T08:10:51;12.90;99.90
52899;DHT22;38763;53.096;6.062;2022-10-16T08:13:16;13.00;99.90
52899;DHT22;38763;53.096;6.062;2022-10-16T08:15:43;13.00;99.90
52899;DHT22;38763;53.096;6.062;2022-10-16T08:18:10;13.20;99.90
52899;DHT22;38763;53.096;6.062;2022-10-16T08:20:36;13.40;99.90
52899;DHT22;38763;53.096;6.062;2022-10-16T08:23:02;13.40;99.90
52899;DHT22;38763;53.096;6.062;2022-10-16T08:25:28;13.60;99.90
52899;DHT22;38763;53.096;6.062;2022-10-16T08:27:54;13.70;99.90
52899;DHT22;38763;53.096;6.062;2022-10-16T08:30:22;13.70;99.90
52899;DHT22;38763;53.096;6.062;2022-10-16T08:32:48;13.80;99.90
52899;DHT22;38763;53.096;6.062;2022-10-16T08:35:14;13.90;99.90
52899;DHT22;38763;53.096;6.062;2022-10-16T08:37:40;14.00;99.90
52899;DHT22;38763;53.096;6.062;2022-10-16T08:40:11;14.20;99.90
52899;DHT22;38763;53.096;6.062;2022-10-16T08:42:47;14.20;99.90
52899;DHT22;38763;53.096;6.062;2022-10-16T08:45:38;14.20;99.90
52899;DHT22;38763;53.096;6.062;2022-10-16T08:50:44;14.20;99.90
52899;DHT22;38763;53.096;6.062;2022-10-16T08:53:17;14.10;99.90
52899;DHT22;38763;53.096;6.062;2022-10-16T08:58:14;14.10;99.90
52899;DHT22;38763;53.096;6.062;2022-10-16T09:00:41;14.10;99.90
52899;DHT22;38763;53.096;6.062;2022-10-16T09:03:33;14.30;99.90
52899;DHT22;38763;53.096;6.062;2022-10-16T09:14:53;14.70;99.90
52899;DHT22;38763;53.096;6.062;2022-10-16T09:22:36;14.70;99.90
52899;DHT22;38763;53.096;6.062;2022-10-16T09:25:14;14.50;99.90
52899;DHT22;38763;53.096;6.062;2022-10-16T09:27:40;14.50;99.90
52899;DHT22;38763;53.096;6.062;2022-10-16T09:30:16;14.50;99.90
52899;DHT22;38763;53.096;6.062;2022-10-16T09:32:43;14.50;99.90
52899;DHT22;38763;53.096;6.062;2022-10-16T09:35:20;14.50;99.90
52899;DHT22;38763;53.096;6.062;2022-10-16T09:37:49;14.50;99.90
52899;DHT22;38763;53.096;6.062;2022-10-16T09:40:44;14.50;99.90
52899;DHT22;38763;53.096;6.062;2022-10-16T09:43:35;14.50;99.90
52899;DHT22;38763;53.096;6.062;2022-10-16T09:46:07;14.60;99.90
52899;DHT22;38763;53.096;6.062;2022-10-16T09:49:00;14.70;99.90
52899;DHT22;38763;53.096;6.062;2022-10-16T09:51:31;14.70;99.90
52899;DHT22;38763;53.096;6.062;2022-10-16T09:54:01;14.80;99.90
52899;DHT22;38763;53.096;6.062;2022-10-16T09:56:30;14.80;99.90
52899;DHT22;38763;53.096;6.062;2022-10-16T09:58:59;14.80;99.90
52899;DHT22;38763;53.096;6.062;2022-10-16T10:01:36;14.80;99.90
52899;DHT22;38763;53.096;6.062;2022-10-16T10:04:04;14.90;99.90
52899;DHT22;38763;53.096;6.062;2022-10-16T10:06:45;14.80;99.90
52899;DHT22;38763;53.096;6.062;2022-10-16T10:09:21;14.90;99.90
52899;DHT22;38763;53.096;6.062;2022-10-16T10:11:53;15.00;99.90
52899;DHT22;38763;53.096;6.062;2022-10-16T10:22:17;15.10;99.90
52899;DHT22;38763;53.096;6.062;2022-10-16T10:24:54;15.10;99.90
52899;DHT22;38763;53.096;6.062;2022-10-16T10:27:20;15.10;99.90
52899;DHT22;38763;53.096;6.062;2022-10-16T10:30:29;15.20;99.90
52899;DHT22;38763;53.096;6.062;2022-10-16T10:38:24;15.30;99.90
52899;DHT22;38763;53.096;6.062;2022-10-16T10:41:04;15.30;99.90
52899;DHT22;38763;53.096;6.062;2022-10-16T10:46:31;15.60;99.90
52899;DHT22;38763;53.096;6.062;2022-10-16T11:03:33;15.90;99.90
52899;DHT22;38763;53.096;6.062;2022-10-16T11:08:50;15.90;99.90
52899;DHT22;38763;53.096;6.062;2022-10-16T11:11:25;15.80;99.90
52899;DHT22;38763;53.096;6.062;2022-10-16T11:16:43;15.60;99.90
52899;DHT22;38763;53.096;6.062;2022-10-16T11:22:00;15.70;99.90
52899;DHT22;38763;53.096;6.062;2022-10-16T11:27:37;15.80;99.90
52899;DHT22;38763;53.096;6.062;2022-10-16T11:30:13;15.80;99.90
52899;DHT22;38763;53.096;6.062;2022-10-16T11:38:02;15.90;99.90
52899;DHT22;38763;53.096;6.062;2022-10-16T11:40:31;15.90;99.90
52899;DHT22;38763;53.096;6.062;2022-10-16T11:43:07;15.90;99.90
52899;DHT22;38763;53.096;6.062;2022-10-16T11:45:37;15.80;99.90
52899;DHT22;38763;53.096;6.062;2022-10-16T11:51:30;15.60;99.90
52899;DHT22;38763;53.096;6.062;2022-10-16T11:56:58;15.50;99.90
52899;DHT22;38763;53.096;6.062;2022-10-16T11:59:52;15.30;99.90
52899;DHT22;38763;53.096;6.062;2022-10-16T12:08:12;15.20;99.90
52899;DHT22;38763;53.096;6.062;2022-10-16T12:10:40;15.20;99.90
52899;DHT22;38763;53.096;6.062;2022-10-16T12:13:31;15.40;99.90
52899;DHT22;38763;53.096;6.062;2022-10-16T12:18:39;15.60;99.90
52899;DHT22;38763;53.096;6.062;2022-10-16T12:21:05;15.70;99.90
52899;DHT22;38763;53.096;6.062;2022-10-16T12:23:36;15.70;99.90
52899;DHT22;38763;53.096;6.062;2022-10-16T12:26:03;15.80;99.90
52899;DHT22;38763;53.096;6.062;2022-10-16T12:28:31;15.70;99.90
52899;DHT22;38763;53.096;6.062;2022-10-16T12:31:06;15.70;99.90
52899;DHT22;38763;53.096;6.062;2022-10-16T12:33:41;15.70;99.90
52899;DHT22;38763;53.096;6.062;2022-10-16T12:36:16;15.70;99.90
52899;DHT22;38763;53.096;6.062;2022-10-16T12:38:52;15.60;99.90
52899;DHT22;38763;53.096;6.062;2022-10-16T12:41:30;15.60;99.90
52899;DHT22;38763;53.096;6.062;2022-10-16T12:43:56;15.50;99.90
52899;DHT22;38763;53.096;6.062;2022-10-16T12:46:23;15.60;99.90
52899;DHT22;38763;53.096;6.062;2022-10-16T12:48:49;15.50;99.90
52899;DHT22;38763;53.096;6.062;2022-10-16T12:51:57;15.50;99.90
52899;DHT22;38763;53.096;6.062;2022-10-16T12:54:30;15.50;99.90
52899;DHT22;38763;53.096;6.062;2022-10-16T13:10:24;15.40;99.90
52899;DHT22;38763;53.096;6.062;2022-10-16T13:18:25;15.40;99.90
52899;DHT22;38763;53.096;6.062;2022-10-16T13:20:56;15.40;99.90
52899;DHT22;38763;53.096;6.062;2022-10-16T13:26:00;15.40;99.90
52899;DHT22;38763;53.096;6.062;2022-10-16T13:28:31;15.40;99.90
52899;DHT22;38763;53.096;6.062;2022-10-16T13:30:59;15.30;99.90
52899;DHT22;38763;53.096;6.062;2022-10-16T13:33:40;15.30;99.90
52899;DHT22;38763;53.096;6.062;2022-10-16T13:36:19;15.20;99.90
52899;DHT22;38763;53.096;6.062;2022-10-16T13:38:45;15.20;99.90
52899;DHT22;38763;53.096;6.062;2022-10-16T13:41:17;15.20;99.90
52899;DHT22;38763;53.096;6.062;2022-10-16T13:43:47;15.20;99.90
52899;DHT22;38763;53.096;6.062;2022-10-16T13:46:19;15.30;99.90
52899;DHT22;38763;53.096;6.062;2022-10-16T13:48:57;15.40;99.90
52899;DHT22;38763;53.096;6.062;2022-10-16T13:51:23;15.40;99.90
52899;DHT22;38763;53.096;6.062;2022-10-16T13:53:48;15.40;99.90
52899;DHT22;38763;53.096;6.062;2022-10-16T13:56:18;15.50;99.90
52899;DHT22;38763;53.096;6.062;2022-10-16T13:58:44;15.50;99.90
52899;DHT22;38763;53.096;6.062;2022-10-16T14:01:30;15.50;99.90
52899;DHT22;38763;53.096;6.062;2022-10-16T14:04:06;15.60;99.90
52899;DHT22;38763;53.096;6.062;2022-10-16T14:06:32;15.50;99.90
52899;DHT22;38763;53.096;6.062;2022-10-16T14:09:05;15.50;99.90
52899;DHT22;38763;53.096;6.062;2022-10-16T14:11:31;15.50;99.90
52899;DHT22;38763;53.096;6.062;2022-10-16T14:13:58;15.50;99.90
52899;DHT22;38763;53.096;6.062;2022-10-16T14:16:26;15.50;99.90
52899;DHT22;38763;53.096;6.062;2022-10-16T14:19:03;15.40;99.90
52899;DHT22;38763;53.096;6.062;2022-10-16T14:21:32;15.40;99.90
52899;DHT22;38763;53.096;6.062;2022-10-16T14:23:58;15.30;99.90
52899;DHT22;38763;53.096;6.062;2022-10-16T14:26:26;15.20;99.90
52899;DHT22;38763;53.096;6.062;2022-10-16T14:29:15;15.10;99.90
52899;DHT22;38763;53.096;6.062;2022-10-16T14:31:43;15.10;99.90
52899;DHT22;38763;53.096;6.062;2022-10-16T14:34:36;15.00;99.90
52899;DHT22;38763;53.096;6.062;2022-10-16T14:39:40;15.00;99.90
52899;DHT22;38763;53.096;6.062;2022-10-16T14:42:14;14.90;99.90
52899;DHT22;38763;53.096;6.062;2022-10-16T14:44:41;14.80;99.90
52899;DHT22;38763;53.096;6.062;2022-10-16T14:47:09;14.80;99.90
52899;DHT22;38763;53.096;6.062;2022-10-16T14:49:37;14.80;99.90
52899;DHT22;38763;53.096;6.062;2022-10-16T14:52:08;14.70;99.90
52899;DHT22;38763;53.096;6.062;2022-10-16T14:54:35;14.70;99.90
52899;DHT22;38763;53.096;6.062;2022-10-16T14:57:01;14.70;99.90
52899;DHT22;38763;53.096;6.062;2022-10-16T14:59:38;14.70;99.90
52899;DHT22;38763;53.096;6.062;2022-10-16T15:04:43;14.60;99.90
52899;DHT22;38763;53.096;6.062;2022-10-16T15:07:08;14.60;99.90
52899;DHT22;38763;53.096;6.062;2022-10-16T15:09:34;14.60;99.90
52899;DHT22;38763;53.096;6.062;2022-10-16T15:11:59;14.60;99.90
52899;DHT22;38763;53.096;6.062;2022-10-16T15:14:25;14.50;99.90
52899;DHT22;38763;53.096;6.062;2022-10-16T15:16:51;14.50;99.90
52899;DHT22;38763;53.096;6.062;2022-10-16T15:19:16;14.50;99.90
52899;DHT22;38763;53.096;6.062;2022-10-16T15:21:42;14.50;99.90
52899;DHT22;38763;53.096;6.062;2022-10-16T15:24:12;14.50;99.90
52899;DHT22;38763;53.096;6.062;2022-10-16T15:26:38;14.50;99.90
52899;DHT22;38763;53.096;6.062;2022-10-16T15:29:04;14.40;99.90
52899;DHT22;38763;53.096;6.062;2022-10-16T15:31:30;14.40;99.90
52899;DHT22;38763;53.096;6.062;2022-10-16T15:33:56;14.40;99.90
52899;DHT22;38763;53.096;6.062;2022-10-16T15:36:28;14.30;99.90
52899;DHT22;38763;53.096;6.062;2022-10-16T15:38:54;14.30;99.90
52899;DHT22;38763;53.096;6.062;2022-10-16T15:41:21;14.30;99.90
52899;DHT22;38763;53.096;6.062;2022-10-16T15:43:49;14.20;99.90
52899;DHT22;38763;53.096;6.062;2022-10-16T15:46:17;14.20;99.90
52899;DHT22;38763;53.096;6.062;2022-10-16T15:48:43;14.10;99.90
52899;DHT22;38763;53.096;6.062;2022-10-16T15:51:09;14.10;99.90
52899;DHT22;38763;53.096;6.062;2022-10-16T15:53:35;14.00;99.90
52899;DHT22;38763;53.096;6.062;2022-10-16T15:56:05;14.00;99.90
52899;DHT22;38763;53.096;6.062;2022-10-16T15:58:31;13.90;99.90
52899;DHT22;38763;53.096;6.062;2022-10-16T16:00:58;13.90;99.90
52899;DHT22;38763;53.096;6.062;2022-10-16T16:03:26;13.80;99.90
52899;DHT22;38763;53.096;6.062;2022-10-16T16:05:52;13.80;99.90
52899;DHT22;38763;53.096;6.062;2022-10-16T16:08:18;13.70;99.90
52899;DHT22;38763;53.096;6.062;2022-10-16T16:10:43;13.70;99.90
52899;DHT22;38763;53.096;6.062;2022-10-16T16:13:09;13.60;99.90
52899;DHT22;38763;53.096;6.062;2022-10-16T16:15:38;13.60;99.90
52899;DHT22;38763;53.096;6.062;2022-10-16T16:18:04;13.50;99.90
52899;DHT22;38763;53.096;6.062;2022-10-16T16:20:31;13.50;99.90
52899;DHT22;38763;53.096;6.062;2022-10-16T16:22:56;13.40;99.90
52899;DHT22;38763;53.096;6.062;2022-10-16T16:25:22;13.30;99.90
52899;DHT22;38763;53.096;6.062;2022-10-16T16:27:48;13.30;99.90
52899;DHT22;38763;53.096;6.062;2022-10-16T16:30:13;13.20;99.90
52899;DHT22;38763;53.096;6.062;2022-10-16T16:32:39;13.10;99.90
52899;DHT22;38763;53.096;6.062;2022-10-16T16:35:05;13.00;99.90
52899;DHT22;38763;53.096;6.062;2022-10-16T16:37:31;13.00;99.90
52899;DHT22;38763;53.096;6.062;2022-10-16T16:39:57;13.00;99.90
52899;DHT22;38763;53.096;6.062;2022-10-16T16:42:26;13.00;99.90
52899;DHT22;38763;53.096;6.062;2022-10-16T16:44:52;13.00;99.90
52899;DHT22;38763;53.096;6.062;2022-10-16T16:47:18;12.90;99.90
52899;DHT22;38763;53.096;6.062;2022-10-16T16:49:44;12.90;99.90
52899;DHT22;38763;53.096;6.062;2022-10-16T16:52:12;12.80;99.90
52899;DHT22;38763;53.096;6.062;2022-10-16T16:54:38;12.80;99.90
52899;DHT22;38763;53.096;6.062;2022-10-16T16:57:04;12.70;99.90
52899;DHT22;38763;53.096;6.062;2022-10-16T16:59:29;12.70;99.90
52899;DHT22;38763;53.096;6.062;2022-10-16T17:02:01;12.60;99.90
52899;DHT22;38763;53.096;6.062;2022-10-16T17:04:26;12.60;99.90
52899;DHT22;38763;53.096;6.062;2022-10-16T17:06:53;12.50;99.90
52899;DHT22;38763;53.096;6.062;2022-10-16T17:09:20;12.50;99.90
52899;DHT22;38763;53.096;6.062;2022-10-16T17:11:46;12.50;99.90
52899;DHT22;38763;53.096;6.062;2022-10-16T17:14:14;12.50;99.90
52899;DHT22;38763;53.096;6.062;2022-10-16T17:16:40;12.50;99.90
52899;DHT22;38763;53.096;6.062;2022-10-16T17:19:11;12.50;99.90
52899;DHT22;38763;53.096;6.062;2022-10-16T17:21:37;12.40;99.90
52899;DHT22;38763;53.096;6.062;2022-10-16T17:24:03;12.40;99.90
52899;DHT22;38763;53.096;6.062;2022-10-16T17:26:30;12.40;99.90
52899;DHT22;38763;53.096;6.062;2022-10-16T17:28:57;12.30;99.90
52899;DHT22;38763;53.096;6.062;2022-10-16T17:31:29;12.40;99.90
52899;DHT22;38763;53.096;6.062;2022-10-16T17:33:56;12.30;99.90
52899;DHT22;38763;53.096;6.062;2022-10-16T17:36:22;12.30;99.90
52899;DHT22;38763;53.096;6.062;2022-10-16T17:38:48;12.30;99.90
52899;DHT22;38763;53.096;6.062;2022-10-16T17:41:18;12.20;99.90
52899;DHT22;38763;53.096;6.062;2022-10-16T17:43:45;12.20;99.90
52899;DHT22;38763;53.096;6.062;2022-10-16T17:46:12;12.20;99.90
52899;DHT22;38763;53.096;6.062;2022-10-16T17:48:43;12.20;99.90